Frojdi II — ZAD4L — position and weather

sailwx.info

Track history (hours):
 
Tides and Currents Weather Stations Pressure Air Temp Water Temp Dewpoint Dewpoint Depression Visibility Wind Speed Wind Dir Waves Ship Positions

Frojdi II

Last reported at 2018-Nov-06 23:30 UTC. Time now 2018-Nov-15 23:23 UTC.
Position N 44°54' E 013°18'.
Warning: this ship's position is 8 days out of date.

Length 74 m; draft 3.5 m.

Type: Cargo ship. MMSI: 201100115.

Date/timePositionNaut miles runAvg speedWind from/ knotsBaromVisibWave heightAir tempDewpointWater temp
2018-Nov-06 23:30N 44°54' E 013°18'3 7.1
2018-Nov-06 23:03N 44°57' E 013°15'0 7.0
2018-Nov-06 23:00N 44°57' E 013°15'7 7.1
2018-Nov-06 22:00N 45°03' E 013°10'4 7.2
2018-Nov-06 21:30N 45°06' E 013°07'3 7.0
2018-Nov-06 21:03N 45°09' E 013°06'0 7.1
2018-Nov-06 21:00N 45°09' E 013°06'4 7.1
2018-Nov-06 20:30N 45°13' E 013°04'3 7.1
2018-Nov-06 20:03N 45°16' E 013°03'0 7.1
2018-Nov-06 20:00N 45°16' E 013°03'4 7.0
2018-Nov-06 19:30N 45°20' E 013°02'3 6.3
2018-Nov-06 19:03N 45°22' E 013°03'0 7.3
2018-Nov-06 19:00N 45°23' E 013°03'4 7.2
2018-Nov-06 18:30N 45°25' E 013°07'3 7.1
2018-Nov-06 18:03N 45°28' E 013°10'0 7.2
2018-Nov-06 18:00N 45°28' E 013°10'4 7.1
2018-Nov-06 17:30N 45°30' E 013°14'3 7.2
2018-Nov-06 17:03N 45°33' E 013°17'0 7.5
2018-Nov-06 17:00N 45°33' E 013°18'4 7.4
2018-Nov-06 16:30N 45°35' E 013°22'3 7.3
2018-Nov-06 16:03N 45°36' E 013°26'0 7.1
2018-Nov-06 16:00N 45°36' E 013°27'4 7.3
2018-Nov-06 15:30N 45°38' E 013°32'3 6.0
2018-Nov-06 15:03N 45°38' E 013°35'0 6.5
2018-Nov-06 15:00N 45°38' E 013°36'3 6.5
2018-Nov-06 14:30N 45°36' E 013°39'3 6.0
2018-Nov-06 14:03N 45°34' E 013°42'0 6.3
2018-Nov-06 14:00N 45°34' E 013°43'1 2.1
2018-Nov-06 13:23N 45°34' E 013°44'0 0.0
2018-Nov-06 12:58N 45°34' E 013°44'0 0.0
2018-Nov-06 12:28N 45°34' E 013°44'0 0.0
2018-Nov-06 12:01N 45°34' E 013°44'0 0.3
2018-Nov-06 11:59N 45°34' E 013°44'0 0.0
2018-Nov-06 11:29N 45°34' E 013°44'0 0.0
2018-Nov-06 11:02N 45°34' E 013°44'0 0.0
2018-Nov-06 10:50N 45°34' E 013°44'0 0.0
2018-Nov-06 10:30N 45°34' E 013°44'0 0.0
2018-Nov-06 09:57N 45°34' E 013°44'0 0.0
2018-Nov-06 09:16N 45°34' E 013°44'0 0.0
2018-Nov-06 09:04N 45°34' E 013°44'0 0.3
2018-Nov-06 09:00N 45°34' E 013°44'0 0.0
2018-Nov-06 08:20N 45°34' E 013°44'0 0.0
2018-Nov-06 07:58N 45°34' E 013°44'0 0.0
2018-Nov-06 07:28N 45°34' E 013°44'0 0.0
2018-Nov-06 07:02N 45°34' E 013°44'0 0.1
2018-Nov-06 06:57N 45°34' E 013°44'0 0.0
2018-Nov-06 06:26N 45°34' E 013°44'0 0.0
2018-Nov-06 06:04N 45°34' E 013°44'0 0.0
2018-Nov-06 05:58N 45°34' E 013°44'0 0.0
2018-Nov-06 05:31N 45°34' E 013°44'0 0.0
2018-Nov-06 05:03N 45°34' E 013°44'0 0.0
2018-Nov-06 04:51N 45°34' E 013°44'0 0.0
2018-Nov-06 04:29N 45°34' E 013°44'0 0.0
2018-Nov-06 04:01N 45°34' E 013°44'0 0.0
2018-Nov-06 03:25N 45°34' E 013°44'0 0.0
2018-Nov-06 02:59N 45°34' E 013°44'0 0.0
2018-Nov-06 02:21N 45°34' E 013°44'0 0.0
2018-Nov-06 02:02N 45°34' E 013°44'0 0.1
2018-Nov-06 01:56N 45°34' E 013°44'0 0.0
2018-Nov-06 01:30N 45°34' E 013°44'0 0.0
2018-Nov-06 01:03N 45°34' E 013°44'0 0.0
2018-Nov-05 23:23N 45°34' E 013°44'0 0.0
2018-Nov-05 23:00N 45°34' E 013°44'0 0.0
2018-Nov-05 22:29N 45°34' E 013°44'0 0.0
2018-Nov-05 22:01N 45°34' E 013°44'0 0.0
2018-Nov-05 21:59N 45°34' E 013°44'0 0.0
2018-Nov-05 21:27N 45°34' E 013°44'0 0.0
2018-Nov-05 21:01N 45°34' E 013°44'0 0.0
2018-Nov-05 20:59N 45°34' E 013°44'0 0.0
2018-Nov-05 20:29N 45°34' E 013°44'0 0.0
2018-Nov-05 20:02N 45°34' E 013°44'0 0.0
2018-Nov-05 19:59N 45°34' E 013°44'0 0.0
2018-Nov-05 19:29N 45°34' E 013°44'0 0.0
2018-Nov-05 19:03N 45°34' E 013°44'0 0.0
2018-Nov-05 19:00N 45°34' E 013°44'0 0.0
2018-Nov-05 18:30N 45°34' E 013°44'0 0.0
2018-Nov-05 18:04N 45°34' E 013°44'0 0.0
2018-Nov-05 17:57N 45°34' E 013°44'0 0.0
2018-Nov-05 17:29N 45°34' E 013°44'0 0.0
2018-Nov-05 17:03N 45°34' E 013°44'0 0.1
2018-Nov-05 17:00N 45°34' E 013°44'0 0.0
2018-Nov-05 16:30N 45°34' E 013°44'0 0.0
2018-Nov-05 16:01N 45°34' E 013°44'0 0.1
2018-Nov-05 15:58N 45°34' E 013°44'0 0.0
2018-Nov-05 15:28N 45°34' E 013°44'0 0.0
2018-Nov-05 15:01N 45°34' E 013°44'0 0.1
2018-Nov-05 14:58N 45°34' E 013°44'0 0.0
2018-Nov-05 14:29N 45°34' E 013°44'0 0.0
2018-Nov-05 14:03N 45°34' E 013°44'0 0.2
2018-Nov-05 13:25N 45°33' E 013°44'1 3.6
2018-Nov-05 13:03N 45°34' E 013°42'0 4.0
2018-Nov-05 13:00N 45°34' E 013°42'1 1.0
2018-Nov-05 12:22N 45°35' E 013°43'0 0.0
2018-Nov-05 11:54N 45°35' E 013°43'0 0.0
2018-Nov-05 11:28N 45°35' E 013°43'0 0.0
2018-Nov-05 10:55N 45°35' E 013°43'0 0.0
2018-Nov-05 10:29N 45°35' E 013°43'0 0.0
2018-Nov-05 09:58N 45°35' E 013°43'0 0.0
2018-Nov-05 09:30N 45°35' E 013°43'0 0.0
2018-Nov-05 08:58N 45°35' E 013°43'0 0.0
2018-Nov-05 08:30N 45°35' E 013°43'0 0.0
2018-Nov-05 08:02N 45°35' E 013°43'0 0.0
2018-Nov-05 07:56N 45°35' E 013°43'0 0.0
2018-Nov-05 07:24N 45°35' E 013°43'0 0.0
2018-Nov-05 07:00N 45°35' E 013°43'0 0.0
2018-Nov-05 06:29N 45°35' E 013°43'0 0.0
2018-Nov-05 06:01N 45°35' E 013°43'0 0.0
2018-Nov-05 05:58N 45°35' E 013°43'0 0.0
2018-Nov-05 05:31N 45°35' E 013°43'0 0.0
2018-Nov-05 04:55N 45°35' E 013°43'0 0.1
2018-Nov-05 04:28N 45°35' E 013°43'0 0.0
2018-Nov-05 04:03N 45°35' E 013°43'0 0.0
2018-Nov-05 03:54N 45°35' E 013°43'0 0.0
2018-Nov-05 03:26N 45°35' E 013°43'0 0.0
2018-Nov-05 03:02N 45°35' E 013°43'0 0.2
2018-Nov-05 02:56N 45°35' E 013°43'0 0.0
2018-Nov-05 02:28N 45°35' E 013°43'0 0.0
2018-Nov-05 02:03N 45°35' E 013°43'0 0.0
2018-Nov-05 02:00N 45°35' E 013°43'0 0.0
2018-Nov-05 01:30N 45°35' E 013°43'0 0.0
2018-Nov-05 01:01N 45°35' E 013°43'0 0.1
2018-Nov-05 00:53N 45°35' E 013°43'0 0.0
2018-Nov-05 00:28N 45°35' E 013°43'0 0.1
2018-Nov-05 00:02N 45°35' E 013°43'0 0.1
2018-Nov-04 23:59N 45°35' E 013°43'0 0.0
2018-Nov-04 23:29N 45°35' E 013°43'0 0.0
2018-Nov-04 23:03N 45°35' E 013°43'0 0.1
2018-Nov-04 23:00N 45°35' E 013°43'0 0.0
2018-Nov-04 22:30N 45°35' E 013°43'0 0.0
2018-Nov-04 22:03N 45°35' E 013°43'0 0.0
2018-Nov-04 21:57N 45°35' E 013°43'0 0.0
2018-Nov-04 21:28N 45°35' E 013°43'0 0.0
2018-Nov-04 20:59N 45°35' E 013°43'0 0.1
2018-Nov-04 20:28N 45°35' E 013°43'0 0.1
2018-Nov-04 20:00N 45°35' E 013°43'0 0.1
2018-Nov-04 19:30N 45°35' E 013°43'0 0.0
2018-Nov-04 19:00N 45°35' E 013°43'0 0.0
2018-Nov-04 18:28N 45°35' E 013°43'0 0.0
2018-Nov-04 18:01N 45°35' E 013°43'0 0.0
2018-Nov-04 17:59N 45°35' E 013°43'0 0.0
2018-Nov-04 17:29N 45°35' E 013°43'0 0.1
2018-Nov-04 16:59N 45°35' E 013°43'0 0.1
2018-Nov-04 16:29N 45°35' E 013°43'0 0.0
2018-Nov-04 16:03N 45°35' E 013°43'0 0.1
2018-Nov-04 16:00N 45°35' E 013°43'0 0.1
2018-Nov-04 15:28N 45°35' E 013°43'0 0.1
2018-Nov-04 15:01N 45°35' E 013°43'0 0.2
2018-Nov-04 14:55N 45°35' E 013°43'0 0.2
2018-Nov-04 14:31N 45°35' E 013°43'0 0.6
2018-Nov-04 14:03N 45°35' E 013°43'0 1.9
2018-Nov-04 14:00N 45°35' E 013°42'3 5.7
2018-Nov-04 13:30N 45°35' E 013°38'3 7.6
2018-Nov-04 13:03N 45°35' E 013°33'0 7.4
2018-Nov-04 13:00N 45°35' E 013°33'4 7.4
2018-Nov-04 12:30N 45°33' E 013°28'3 7.6
2018-Nov-04 12:03N 45°31' E 013°24'0 7.5
2018-Nov-04 12:00N 45°31' E 013°24'4 7.2
2018-Nov-04 11:30N 45°28' E 013°20'3 7.5
2018-Nov-04 11:03N 45°26' E 013°17'0 7.5
2018-Nov-04 11:00N 45°26' E 013°16'3 7.0
2018-Nov-04 10:30N 45°23' E 013°13'3 7.3
2018-Nov-04 10:04N 45°20' E 013°14'0 7.3
2018-Nov-04 10:00N 45°19' E 013°14'4 7.3
2018-Nov-04 09:31N 45°16' E 013°15'3 7.3
2018-Nov-04 09:04N 45°12' E 013°15'0 7.4
2018-Nov-04 09:01N 45°12' E 013°15'4 7.0
2018-Nov-04 08:31N 45°09' E 013°17'3 7.6
2018-Nov-04 08:04N 45°06' E 013°19'0 7.5
2018-Nov-04 08:01N 45°05' E 013°19'4 7.5
2018-Nov-04 07:31N 45°02' E 013°21'3 7.7
2018-Nov-04 07:03N 44°58' E 013°23'0 7.8
2018-Nov-04 07:00N 44°58' E 013°23'4 7.8
2018-Nov-04 06:30N 44°55' E 013°26'3 7.7
2018-Nov-04 06:03N 44°52' E 013°28'0 7.7
2018-Nov-04 06:00N 44°52' E 013°29'4 7.9
2018-Nov-04 05:30N 44°48' E 013°32'4 8.0
2018-Nov-04 05:03N 44°45' E 013°35'0 8.0
2018-Nov-04 05:00N 44°45' E 013°35'24 7.8
2018-Nov-04 01:54N 44°25' E 013°53'8 7.8
2018-Nov-04 00:50N 44°18' E 013°60'  
Track history (hours):
 
Tides and Currents Weather Stations Pressure Air Temp Water Temp Dewpoint Dewpoint Depression Visibility Wind Speed Wind Dir Waves Ship Positions

Frojdi II

Last reported at 2018-Nov-06 23:30 UTC. Time now 2018-Nov-15 23:23 UTC.
Position N 44°54' E 013°18'.
Warning: this ship's position is 8 days out of date.

Length 74 m; draft 3.5 m.

Type: Cargo ship. MMSI: 201100115.

Date/timePositionNaut miles runAvg speedWind from/ knotsBaromVisibWave heightAir tempDewpointWater temp
2018-Nov-06 23:30N 44°54' E 013°18'3 7.1
2018-Nov-06 23:03N 44°57' E 013°15'0 7.0
2018-Nov-06 23:00N 44°57' E 013°15'7 7.1
2018-Nov-06 22:00N 45°03' E 013°10'4 7.2
2018-Nov-06 21:30N 45°06' E 013°07'3 7.0
2018-Nov-06 21:03N 45°09' E 013°06'0 7.1
2018-Nov-06 21:00N 45°09' E 013°06'4 7.1
2018-Nov-06 20:30N 45°13' E 013°04'3 7.1
2018-Nov-06 20:03N 45°16' E 013°03'0 7.1
2018-Nov-06 20:00N 45°16' E 013°03'4 7.0
2018-Nov-06 19:30N 45°20' E 013°02'3 6.3
2018-Nov-06 19:03N 45°22' E 013°03'0 7.3
2018-Nov-06 19:00N 45°23' E 013°03'4 7.2
2018-Nov-06 18:30N 45°25' E 013°07'3 7.1
2018-Nov-06 18:03N 45°28' E 013°10'0 7.2
2018-Nov-06 18:00N 45°28' E 013°10'4 7.1
2018-Nov-06 17:30N 45°30' E 013°14'3 7.2
2018-Nov-06 17:03N 45°33' E 013°17'0 7.5
2018-Nov-06 17:00N 45°33' E 013°18'4 7.4
2018-Nov-06 16:30N 45°35' E 013°22'3 7.3
2018-Nov-06 16:03N 45°36' E 013°26'0 7.1
2018-Nov-06 16:00N 45°36' E 013°27'4 7.3
2018-Nov-06 15:30N 45°38' E 013°32'3 6.0
2018-Nov-06 15:03N 45°38' E 013°35'0 6.5
2018-Nov-06 15:00N 45°38' E 013°36'3 6.5
2018-Nov-06 14:30N 45°36' E 013°39'3 6.0
2018-Nov-06 14:03N 45°34' E 013°42'0 6.3
2018-Nov-06 14:00N 45°34' E 013°43'1 2.1
2018-Nov-06 13:23N 45°34' E 013°44'0 0.0
2018-Nov-06 12:58N 45°34' E 013°44'0 0.0
2018-Nov-06 12:28N 45°34' E 013°44'0 0.0
2018-Nov-06 12:01N 45°34' E 013°44'0 0.3
2018-Nov-06 11:59N 45°34' E 013°44'0 0.0
2018-Nov-06 11:29N 45°34' E 013°44'0 0.0
2018-Nov-06 11:02N 45°34' E 013°44'0 0.0
2018-Nov-06 10:50N 45°34' E 013°44'0 0.0
2018-Nov-06 10:30N 45°34' E 013°44'0 0.0
2018-Nov-06 09:57N 45°34' E 013°44'0 0.0
2018-Nov-06 09:16N 45°34' E 013°44'0 0.0
2018-Nov-06 09:04N 45°34' E 013°44'0 0.3
2018-Nov-06 09:00N 45°34' E 013°44'0 0.0
2018-Nov-06 08:20N 45°34' E 013°44'0 0.0
2018-Nov-06 07:58N 45°34' E 013°44'0 0.0
2018-Nov-06 07:28N 45°34' E 013°44'0 0.0
2018-Nov-06 07:02N 45°34' E 013°44'0 0.1
2018-Nov-06 06:57N 45°34' E 013°44'0 0.0
2018-Nov-06 06:26N 45°34' E 013°44'0 0.0
2018-Nov-06 06:04N 45°34' E 013°44'0 0.0
2018-Nov-06 05:58N 45°34' E 013°44'0 0.0
2018-Nov-06 05:31N 45°34' E 013°44'0 0.0
2018-Nov-06 05:03N 45°34' E 013°44'0 0.0
2018-Nov-06 04:51N 45°34' E 013°44'0 0.0
2018-Nov-06 04:29N 45°34' E 013°44'0 0.0
2018-Nov-06 04:01N 45°34' E 013°44'0 0.0
2018-Nov-06 03:25N 45°34' E 013°44'0 0.0
2018-Nov-06 02:59N 45°34' E 013°44'0 0.0
2018-Nov-06 02:21N 45°34' E 013°44'0 0.0
2018-Nov-06 02:02N 45°34' E 013°44'0 0.1
2018-Nov-06 01:56N 45°34' E 013°44'0 0.0
2018-Nov-06 01:30N 45°34' E 013°44'0 0.0
2018-Nov-06 01:03N 45°34' E 013°44'0 0.0
2018-Nov-05 23:23N 45°34' E 013°44'0 0.0
2018-Nov-05 23:00N 45°34' E 013°44'0 0.0
2018-Nov-05 22:29N 45°34' E 013°44'0 0.0
2018-Nov-05 22:01N 45°34' E 013°44'0 0.0
2018-Nov-05 21:59N 45°34' E 013°44'0 0.0
2018-Nov-05 21:27N 45°34' E 013°44'0 0.0
2018-Nov-05 21:01N 45°34' E 013°44'0 0.0
2018-Nov-05 20:59N 45°34' E 013°44'0 0.0
2018-Nov-05 20:29N 45°34' E 013°44'0 0.0
2018-Nov-05 20:02N 45°34' E 013°44'0 0.0
2018-Nov-05 19:59N 45°34' E 013°44'0 0.0
2018-Nov-05 19:29N 45°34' E 013°44'0 0.0
2018-Nov-05 19:03N 45°34' E 013°44'0 0.0
2018-Nov-05 19:00N 45°34' E 013°44'0 0.0
2018-Nov-05 18:30N 45°34' E 013°44'0 0.0
2018-Nov-05 18:04N 45°34' E 013°44'0 0.0
2018-Nov-05 17:57N 45°34' E 013°44'0 0.0
2018-Nov-05 17:29N 45°34' E 013°44'0 0.0
2018-Nov-05 17:03N 45°34' E 013°44'0 0.1
2018-Nov-05 17:00N 45°34' E 013°44'0 0.0
2018-Nov-05 16:30N 45°34' E 013°44'0 0.0
2018-Nov-05 16:01N 45°34' E 013°44'0 0.1
2018-Nov-05 15:58N 45°34' E 013°44'0 0.0
2018-Nov-05 15:28N 45°34' E 013°44'0 0.0
2018-Nov-05 15:01N 45°34' E 013°44'0 0.1
2018-Nov-05 14:58N 45°34' E 013°44'0 0.0
2018-Nov-05 14:29N 45°34' E 013°44'0 0.0
2018-Nov-05 14:03N 45°34' E 013°44'0 0.2
2018-Nov-05 13:25N 45°33' E 013°44'1 3.6
2018-Nov-05 13:03N 45°34' E 013°42'0 4.0
2018-Nov-05 13:00N 45°34' E 013°42'1 1.0
2018-Nov-05 12:22N 45°35' E 013°43'0 0.0
2018-Nov-05 11:54N 45°35' E 013°43'0 0.0
2018-Nov-05 11:28N 45°35' E 013°43'0 0.0
2018-Nov-05 10:55N 45°35' E 013°43'0 0.0
2018-Nov-05 10:29N 45°35' E 013°43'0 0.0
2018-Nov-05 09:58N 45°35' E 013°43'0 0.0
2018-Nov-05 09:30N 45°35' E 013°43'0 0.0
2018-Nov-05 08:58N 45°35' E 013°43'0 0.0
2018-Nov-05 08:30N 45°35' E 013°43'0 0.0
2018-Nov-05 08:02N 45°35' E 013°43'0 0.0
2018-Nov-05 07:56N 45°35' E 013°43'0 0.0
2018-Nov-05 07:24N 45°35' E 013°43'0 0.0
2018-Nov-05 07:00N 45°35' E 013°43'0 0.0
2018-Nov-05 06:29N 45°35' E 013°43'0 0.0
2018-Nov-05 06:01N 45°35' E 013°43'0 0.0
2018-Nov-05 05:58N 45°35' E 013°43'0 0.0
2018-Nov-05 05:31N 45°35' E 013°43'0 0.0
2018-Nov-05 04:55N 45°35' E 013°43'0 0.1
2018-Nov-05 04:28N 45°35' E 013°43'0 0.0
2018-Nov-05 04:03N 45°35' E 013°43'0 0.0
2018-Nov-05 03:54N 45°35' E 013°43'0 0.0
2018-Nov-05 03:26N 45°35' E 013°43'0 0.0
2018-Nov-05 03:02N 45°35' E 013°43'0 0.2
2018-Nov-05 02:56N 45°35' E 013°43'0 0.0
2018-Nov-05 02:28N 45°35' E 013°43'0 0.0
2018-Nov-05 02:03N 45°35' E 013°43'0 0.0
2018-Nov-05 02:00N 45°35' E 013°43'0 0.0
2018-Nov-05 01:30N 45°35' E 013°43'0 0.0
2018-Nov-05 01:01N 45°35' E 013°43'0 0.1
2018-Nov-05 00:53N 45°35' E 013°43'0 0.0
2018-Nov-05 00:28N 45°35' E 013°43'0 0.1
2018-Nov-05 00:02N 45°35' E 013°43'0 0.1
2018-Nov-04 23:59N 45°35' E 013°43'0 0.0
2018-Nov-04 23:29N 45°35' E 013°43'0 0.0
2018-Nov-04 23:03N 45°35' E 013°43'0 0.1
2018-Nov-04 23:00N 45°35' E 013°43'0 0.0
2018-Nov-04 22:30N 45°35' E 013°43'0 0.0
2018-Nov-04 22:03N 45°35' E 013°43'0 0.0
2018-Nov-04 21:57N 45°35' E 013°43'0 0.0
2018-Nov-04 21:28N 45°35' E 013°43'0 0.0
2018-Nov-04 20:59N 45°35' E 013°43'0 0.1
2018-Nov-04 20:28N 45°35' E 013°43'0 0.1
2018-Nov-04 20:00N 45°35' E 013°43'0 0.1
2018-Nov-04 19:30N 45°35' E 013°43'0 0.0
2018-Nov-04 19:00N 45°35' E 013°43'0 0.0
2018-Nov-04 18:28N 45°35' E 013°43'0 0.0
2018-Nov-04 18:01N 45°35' E 013°43'0 0.0
2018-Nov-04 17:59N 45°35' E 013°43'0 0.0
2018-Nov-04 17:29N 45°35' E 013°43'0 0.1
2018-Nov-04 16:59N 45°35' E 013°43'0 0.1
2018-Nov-04 16:29N 45°35' E 013°43'0 0.0
2018-Nov-04 16:03N 45°35' E 013°43'0 0.1
2018-Nov-04 16:00N 45°35' E 013°43'0 0.1
2018-Nov-04 15:28N 45°35' E 013°43'0 0.1
2018-Nov-04 15:01N 45°35' E 013°43'0 0.2
2018-Nov-04 14:55N 45°35' E 013°43'0 0.2
2018-Nov-04 14:31N 45°35' E 013°43'0 0.6
2018-Nov-04 14:03N 45°35' E 013°43'0 1.9
2018-Nov-04 14:00N 45°35' E 013°42'3 5.7
2018-Nov-04 13:30N 45°35' E 013°38'3 7.6
2018-Nov-04 13:03N 45°35' E 013°33'0 7.4
2018-Nov-04 13:00N 45°35' E 013°33'4 7.4
2018-Nov-04 12:30N 45°33' E 013°28'3 7.6
2018-Nov-04 12:03N 45°31' E 013°24'0 7.5
2018-Nov-04 12:00N 45°31' E 013°24'4 7.2
2018-Nov-04 11:30N 45°28' E 013°20'3 7.5
2018-Nov-04 11:03N 45°26' E 013°17'0 7.5
2018-Nov-04 11:00N 45°26' E 013°16'3 7.0
2018-Nov-04 10:30N 45°23' E 013°13'3 7.3
2018-Nov-04 10:04N 45°20' E 013°14'0 7.3
2018-Nov-04 10:00N 45°19' E 013°14'4 7.3
2018-Nov-04 09:31N 45°16' E 013°15'3 7.3
2018-Nov-04 09:04N 45°12' E 013°15'0 7.4
2018-Nov-04 09:01N 45°12' E 013°15'4 7.0
2018-Nov-04 08:31N 45°09' E 013°17'3 7.6
2018-Nov-04 08:04N 45°06' E 013°19'0 7.5
2018-Nov-04 08:01N 45°05' E 013°19'4 7.5
2018-Nov-04 07:31N 45°02' E 013°21'3 7.7
2018-Nov-04 07:03N 44°58' E 013°23'0 7.8
2018-Nov-04 07:00N 44°58' E 013°23'4 7.8
2018-Nov-04 06:30N 44°55' E 013°26'3 7.7
2018-Nov-04 06:03N 44°52' E 013°28'0 7.7
2018-Nov-04 06:00N 44°52' E 013°29'4 7.9
2018-Nov-04 05:30N 44°48' E 013°32'4 8.0
2018-Nov-04 05:03N 44°45' E 013°35'0 8.0
2018-Nov-04 05:00N 44°45' E 013°35'24 7.8
2018-Nov-04 01:54N 44°25' E 013°53'8 7.8
2018-Nov-04 00:50N 44°18' E 013°60'  

Dump ship's entire track history